NYU weather

Public forecast

Using degrees Celsius for public forecast. Weather courtesy of forecast.io.

Closest aviation weather report (METAR) to Bagan Airport

Closest report is Mandalay International Airport, 66.5 nm (123.1 km) ENE. Retrieved 2020/08/13 13:30 UTC (0 seconds ago):

VYMD 131330Z 13010KT 6000 BKN018 FEW020CB BKN100 32/25 Q1001

Closest aviation forecast (TAF) to Bagan Airport

Closest forecast is Mandalay International Airport, 66.5 nm (123.1 km) ENE. Retrieved 2020/08/13 12:00 UTC (1 hour ago):

TAF VYMD 131100Z 1312/1412 18010KT 6000 BKN018 FEW020CB BKN100 TEMPO 1312/1318 17010G15KT 5000 -TSRA BKN015 FEW018CB BKN100